createdAt,value
2018-05-07T00:00:06.406Z,16.55
2018-05-07T00:02:40.976Z,16.55
2018-05-07T00:05:15.629Z,16.50
2018-05-07T00:07:50.269Z,16.47
2018-05-07T00:10:24.971Z,16.44
2018-05-07T00:12:59.432Z,16.43
2018-05-07T00:15:33.972Z,16.35
2018-05-07T00:18:09.442Z,16.28
2018-05-07T00:20:44.034Z,16.27
2018-05-07T00:23:18.736Z,16.24
2018-05-07T00:25:53.228Z,16.21
2018-05-07T00:28:27.824Z,16.18
2018-05-07T00:31:02.366Z,16.15
2018-05-07T00:33:37.682Z,16.12
2018-05-07T00:36:12.280Z,16.07
2018-05-07T00:38:46.906Z,16.02
2018-05-07T00:41:21.485Z,16.02
2018-05-07T00:43:56.688Z,15.96
2018-05-07T00:46:31.317Z,15.88
2018-05-07T00:49:05.794Z,15.87
2018-05-07T00:51:41.117Z,15.84
2018-05-07T00:54:15.547Z,15.89
2018-05-07T00:56:50.100Z,15.90
2018-05-07T00:59:24.745Z,15.86
2018-05-07T01:01:59.314Z,15.89
2018-05-07T01:04:33.710Z,15.83
2018-05-07T01:07:08.348Z,15.83
2018-05-07T01:09:42.785Z,15.86
2018-05-07T01:12:18.085Z,15.85
2018-05-07T01:14:52.706Z,15.80
2018-05-07T01:17:27.359Z,15.72
2018-05-07T01:20:01.868Z,15.73
2018-05-07T01:22:36.422Z,15.76
2018-05-07T01:25:11.043Z,15.73
2018-05-07T01:27:45.650Z,15.68
2018-05-07T01:30:20.886Z,15.63
2018-05-07T01:32:56.385Z,15.56
2018-05-07T01:35:30.973Z,15.45
2018-05-07T01:38:06.273Z,15.38
2018-05-07T01:40:40.839Z,15.34
2018-05-07T01:43:15.477Z,15.30
2018-05-07T01:45:49.845Z,15.21
2018-05-07T01:48:24.556Z,15.17
2018-05-07T01:50:59.134Z,15.05
2018-05-07T01:53:33.653Z,15.01
2018-05-07T01:56:08.178Z,15.03
2018-05-07T01:58:42.577Z,14.94
2018-05-07T02:01:17.023Z,14.88
2018-05-07T02:03:51.665Z,14.83
2018-05-07T02:06:26.291Z,14.73
2018-05-07T02:09:00.882Z,14.76
2018-05-07T02:11:35.397Z,14.69
2018-05-07T02:14:09.893Z,14.66
2018-05-07T02:16:44.483Z,14.63
2018-05-07T02:19:19.098Z,14.57
2018-05-07T02:21:53.680Z,14.52
2018-05-07T02:24:28.943Z,14.46
2018-05-07T02:27:03.380Z,14.42
2018-05-07T02:29:37.929Z,14.45
2018-05-07T02:32:12.449Z,14.37
2018-05-07T02:34:47.018Z,14.38
2018-05-07T02:37:21.621Z,14.33
2018-05-07T02:39:56.109Z,14.24
2018-05-07T02:42:30.716Z,14.22
2018-05-07T02:45:05.194Z,14.16
2018-05-07T02:47:39.919Z,14.12
2018-05-07T02:50:14.503Z,14.03
2018-05-07T02:52:49.895Z,14.05
2018-05-07T02:55:24.373Z,13.98
2018-05-07T02:57:58.908Z,14.02
2018-05-07T03:00:33.328Z,13.95
2018-05-07T03:03:07.970Z,13.91
2018-05-07T03:05:43.347Z,13.89
2018-05-07T03:08:18.686Z,13.86
2018-05-07T03:10:53.358Z,13.83
2018-05-07T03:13:27.942Z,13.83
2018-05-07T03:16:02.559Z,13.77
2018-05-07T03:18:36.938Z,13.72
2018-05-07T03:21:11.610Z,13.71
2018-05-07T03:23:46.204Z,13.73
2018-05-07T03:26:20.801Z,13.69
2018-05-07T03:28:55.440Z,13.71
2018-05-07T03:31:30.035Z,13.58
2018-05-07T03:34:04.693Z,13.52
2018-05-07T03:36:39.258Z,13.51
2018-05-07T03:39:13.878Z,13.45
2018-05-07T03:41:48.634Z,13.46
2018-05-07T03:44:23.149Z,13.40
2018-05-07T03:46:57.596Z,13.39
2018-05-07T03:49:32.196Z,13.41
2018-05-07T03:52:06.929Z,13.34
2018-05-07T03:54:42.064Z,13.36
2018-05-07T03:57:17.418Z,13.36
2018-05-07T03:59:52.028Z,13.33
2018-05-07T04:02:26.667Z,13.30
2018-05-07T04:05:01.881Z,13.26
2018-05-07T04:07:36.652Z,13.31
2018-05-07T04:10:11.374Z,13.28
2018-05-07T04:12:45.950Z,13.24
2018-05-07T04:15:21.211Z,13.24
2018-05-07T04:18:13.704Z,13.24
2018-05-07T04:21:05.883Z,13.24
2018-05-07T04:23:58.285Z,13.31
2018-05-07T04:26:33.693Z,13.32
2018-05-07T04:29:09.061Z,13.32
2018-05-07T04:31:43.646Z,13.34
2018-05-07T04:34:18.099Z,13.33
2018-05-07T04:36:52.638Z,13.34
2018-05-07T04:39:28.010Z,13.32
2018-05-07T04:42:02.532Z,13.33
2018-05-07T04:44:37.054Z,13.39
2018-05-07T04:47:11.632Z,13.41
2018-05-07T04:49:46.248Z,13.42
2018-05-07T04:52:20.879Z,13.50
2018-05-07T04:54:55.481Z,13.63
2018-05-07T04:57:30.169Z,13.58
2018-05-07T05:00:04.732Z,13.61
2018-05-07T05:02:39.329Z,13.65
2018-05-07T05:05:14.618Z,13.83
2018-05-07T05:07:49.417Z,13.89
2018-05-07T05:10:23.874Z,13.94
2018-05-07T05:12:59.269Z,13.97
2018-05-07T05:15:33.857Z,14.10
2018-05-07T05:18:09.237Z,14.10
2018-05-07T05:20:43.701Z,14.13
2018-05-07T05:23:18.171Z,14.18
2018-05-07T05:25:52.733Z,14.18
2018-05-07T05:28:28.033Z,14.27
2018-05-07T05:31:02.532Z,14.35
2018-05-07T05:33:37.142Z,14.44
2018-05-07T05:36:11.841Z,14.48
2018-05-07T05:38:46.395Z,14.51
2018-05-07T05:41:21.767Z,14.62
2018-05-07T05:43:56.299Z,14.66
2018-05-07T05:46:30.831Z,14.72
2018-05-07T05:49:05.381Z,14.85
2018-05-07T05:51:39.845Z,14.93
2018-05-07T05:54:15.207Z,15.05
2018-05-07T05:56:49.828Z,15.10
2018-05-07T05:59:25.162Z,15.20
2018-05-07T06:01:59.819Z,15.35
2018-05-07T06:04:34.398Z,15.53
2018-05-07T06:07:09.115Z,15.59
2018-05-07T06:09:43.771Z,15.66
2018-05-07T06:12:19.143Z,15.74
2018-05-07T06:14:53.954Z,15.88
2018-05-07T06:17:28.473Z,16.07
2018-05-07T06:20:03.112Z,16.17
2018-05-07T06:22:37.644Z,16.21
2018-05-07T06:25:12.218Z,16.35
2018-05-07T06:27:46.854Z,16.48
2018-05-07T06:30:21.422Z,16.62
2018-05-07T06:32:55.902Z,16.77
2018-05-07T06:35:30.415Z,16.82
2018-05-07T06:38:04.829Z,16.95
2018-05-07T06:40:39.370Z,17.06
2018-05-07T06:43:14.068Z,17.20
2018-05-07T06:45:48.712Z,17.25
2018-05-07T06:48:23.264Z,17.46
2018-05-07T06:50:57.920Z,17.60
2018-05-07T06:53:32.641Z,17.75
2018-05-07T06:56:07.263Z,17.94
2018-05-07T06:58:41.855Z,18.10
2018-05-07T07:01:16.445Z,18.26
2018-05-07T07:03:51.067Z,18.43
2018-05-07T07:06:25.675Z,18.59
2018-05-07T07:09:00.894Z,18.81
2018-05-07T07:11:35.555Z,18.98
2018-05-07T07:14:10.104Z,19.17
2018-05-07T07:16:44.697Z,19.25
2018-05-07T07:19:19.310Z,19.41
2018-05-07T07:21:53.860Z,19.63
2018-05-07T07:24:28.405Z,19.80
2018-05-07T07:27:03.002Z,19.95
2018-05-07T07:29:37.629Z,20.14
2018-05-07T07:32:12.245Z,20.32
2018-05-07T07:34:46.809Z,20.56
2018-05-07T07:37:24.369Z,20.79
2018-05-07T07:39:58.930Z,21.07
2018-05-07T07:42:33.539Z,21.26
2018-05-07T07:45:08.062Z,21.45
2018-05-07T07:47:42.754Z,21.53
2018-05-07T07:50:17.282Z,21.71
2018-05-07T07:52:51.902Z,21.93
2018-05-07T07:55:27.269Z,22.22
2018-05-07T07:58:01.900Z,22.41
2018-05-07T08:00:36.500Z,22.66
2018-05-07T08:03:11.054Z,22.68
2018-05-07T08:05:45.595Z,22.89
2018-05-07T08:08:20.242Z,23.04
2018-05-07T08:10:54.769Z,23.15
2018-05-07T08:13:29.358Z,23.38
2018-05-07T08:16:03.969Z,23.55
2018-05-07T08:18:38.443Z,23.84
2018-05-07T08:21:13.772Z,24.13
2018-05-07T08:23:48.368Z,24.25
2018-05-07T08:26:23.000Z,24.50
2018-05-07T08:28:57.524Z,24.70
2018-05-07T08:31:32.092Z,24.81
2018-05-07T08:34:06.775Z,24.95
2018-05-07T08:36:41.483Z,25.02
2018-05-07T08:39:15.945Z,25.24
2018-05-07T08:41:50.573Z,25.39
2018-05-07T08:44:25.170Z,25.70
2018-05-07T08:46:59.719Z,25.95
2018-05-07T08:49:34.206Z,26.11
2018-05-07T08:52:09.612Z,26.38
2018-05-07T08:54:44.831Z,26.68
2018-05-07T08:57:20.194Z,26.95
2018-05-07T08:59:54.715Z,27.03
2018-05-07T09:02:29.300Z,27.11
2018-05-07T09:05:03.933Z,27.37
2018-05-07T09:07:38.573Z,27.75
2018-05-07T09:10:13.227Z,27.96
2018-05-07T09:12:47.709Z,28.20
2018-05-07T09:15:22.254Z,28.41
2018-05-07T09:17:56.938Z,28.60
2018-05-07T09:20:31.497Z,28.51
2018-05-07T09:23:06.121Z,28.67
2018-05-07T09:25:40.613Z,28.31
2018-05-07T09:28:15.159Z,28.50
2018-05-07T09:30:49.801Z,28.68
2018-05-07T09:33:24.390Z,28.83
2018-05-07T09:35:58.888Z,28.45
2018-05-07T09:38:33.507Z,28.63
2018-05-07T09:41:08.150Z,29.07
2018-05-07T09:43:43.337Z,29.17
2018-05-07T09:46:17.908Z,29.44
2018-05-07T09:48:53.284Z,29.75
2018-05-07T09:51:27.807Z,30.08
2018-05-07T09:54:02.369Z,29.37
2018-05-07T09:56:54.836Z,29.42
2018-05-07T09:59:29.371Z,29.23
2018-05-07T10:02:03.864Z,29.23
2018-05-07T10:04:38.482Z,29.50
2018-05-07T10:07:13.171Z,29.83
2018-05-07T10:09:47.839Z,30.01
2018-05-07T10:12:23.083Z,30.25
2018-05-07T10:14:57.709Z,30.39
2018-05-07T10:17:32.362Z,30.72
2018-05-07T10:20:06.938Z,30.91
2018-05-07T10:22:41.614Z,31.11
2018-05-07T10:25:16.216Z,30.36
2018-05-07T10:27:50.848Z,30.23
2018-05-07T10:30:25.284Z,30.43
2018-05-07T10:33:00.525Z,30.76
2018-05-07T10:35:35.159Z,31.06
2018-05-07T10:38:09.769Z,31.42
2018-05-07T10:40:44.325Z,31.48
2018-05-07T10:43:18.873Z,31.56
2018-05-07T10:45:53.453Z,31.91
2018-05-07T10:48:27.900Z,32.23
2018-05-07T10:51:02.398Z,32.43
2018-05-07T10:53:37.037Z,32.53
2018-05-07T10:56:11.681Z,32.70
2018-05-07T10:58:46.280Z,32.78
2018-05-07T11:01:21.575Z,32.20
2018-05-07T11:03:56.238Z,31.91
2018-05-07T11:06:30.692Z,31.93
2018-05-07T11:09:06.167Z,32.08
2018-05-07T11:11:40.876Z,32.05
2018-05-07T11:14:15.445Z,32.33
2018-05-07T11:16:50.702Z,32.59
2018-05-07T11:19:25.333Z,32.46
2018-05-07T11:21:59.928Z,32.29
2018-05-07T11:24:34.541Z,32.20
2018-05-07T11:27:09.814Z,32.13
2018-05-07T11:29:44.418Z,31.98
2018-05-07T11:32:19.053Z,31.90
2018-05-07T11:34:54.439Z,31.78
2018-05-07T11:37:29.658Z,31.96
2018-05-07T11:40:04.281Z,32.36
2018-05-07T11:42:38.814Z,32.82
2018-05-07T11:45:13.414Z,33.01
2018-05-07T11:47:48.071Z,33.02
2018-05-07T11:50:22.618Z,33.26
2018-05-07T11:52:57.926Z,33.16
2018-05-07T11:55:32.534Z,33.18
2018-05-07T11:58:07.182Z,33.19
2018-05-07T12:00:41.718Z,33.02
2018-05-07T12:03:16.323Z,33.09
2018-05-07T12:05:51.457Z,33.33
2018-05-07T12:08:26.096Z,33.38
2018-05-07T12:11:00.620Z,33.03
2018-05-07T12:13:35.111Z,32.67
2018-05-07T12:16:09.796Z,32.94
2018-05-07T12:18:44.257Z,33.11
2018-05-07T12:21:18.820Z,33.16
2018-05-07T12:23:53.355Z,33.34
2018-05-07T12:26:27.968Z,33.36
2018-05-07T12:29:02.521Z,33.24
2018-05-07T12:31:37.129Z,33.34
2018-05-07T12:34:11.683Z,33.75
2018-05-07T12:36:46.280Z,33.90
2018-05-07T12:39:20.876Z,33.19
2018-05-07T12:41:55.386Z,33.49
2018-05-07T12:44:29.966Z,33.66
2018-05-07T12:47:04.403Z,33.90
2018-05-07T12:49:38.874Z,34.20
2018-05-07T12:52:13.481Z,34.34
2018-05-07T12:54:48.089Z,34.45
2018-05-07T12:57:22.761Z,34.37
2018-05-07T12:59:57.310Z,34.03
2018-05-07T13:02:31.781Z,33.84
2018-05-07T13:05:07.090Z,34.23
2018-05-07T13:07:42.302Z,34.47
2018-05-07T13:10:17.694Z,34.61
2018-05-07T13:12:52.309Z,34.55
2018-05-07T13:15:26.709Z,34.28
2018-05-07T13:18:01.322Z,34.48
2018-05-07T13:20:35.724Z,33.34
2018-05-07T13:23:10.324Z,33.15
2018-05-07T13:25:44.994Z,32.89
2018-05-07T13:28:19.458Z,33.12
2018-05-07T13:30:54.799Z,33.48
2018-05-07T13:33:29.392Z,33.80
2018-05-07T13:36:04.012Z,33.87
2018-05-07T13:38:39.376Z,33.87
2018-05-07T13:41:13.990Z,33.29
2018-05-07T13:43:48.618Z,32.95
2018-05-07T13:46:23.134Z,32.93
2018-05-07T13:48:57.691Z,33.22
2018-05-07T13:51:32.300Z,33.45
2018-05-07T13:54:06.734Z,33.35
2018-05-07T13:56:41.362Z,33.06
2018-05-07T13:59:15.797Z,32.21
2018-05-07T14:01:50.557Z,31.50
2018-05-07T14:04:24.989Z,31.41
2018-05-07T14:06:59.588Z,31.69
2018-05-07T14:09:34.048Z,32.11
2018-05-07T14:12:08.710Z,32.55
2018-05-07T14:14:44.101Z,33.12
2018-05-07T14:17:18.608Z,33.06
2018-05-07T14:19:53.252Z,33.08
2018-05-07T14:22:27.883Z,33.21
2018-05-07T14:25:02.371Z,33.43
2018-05-07T14:27:36.934Z,33.37
2018-05-07T14:30:12.215Z,33.08
2018-05-07T14:32:46.770Z,33.09
2018-05-07T14:35:21.148Z,32.81
2018-05-07T14:37:55.799Z,32.96
2018-05-07T14:40:30.231Z,33.08
2018-05-07T14:43:04.664Z,33.21
2018-05-07T14:45:39.225Z,33.33
2018-05-07T14:48:13.798Z,33.33
2018-05-07T14:50:48.370Z,33.33
2018-05-07T14:53:22.945Z,33.22
2018-05-07T14:55:57.522Z,33.10
2018-05-07T14:58:32.099Z,32.98
2018-05-07T15:01:07.436Z,33.08
2018-05-07T15:03:42.793Z,33.25
2018-05-07T15:06:17.315Z,33.06
2018-05-07T15:08:51.948Z,33.08
2018-05-07T15:11:26.537Z,33.10
2018-05-07T15:14:23.561Z,32.94
2018-05-07T15:16:58.096Z,33.03
2018-05-07T15:19:32.743Z,32.92
2018-05-07T15:22:07.315Z,32.84
2018-05-07T15:24:46.774Z,32.57
2018-05-07T15:27:22.096Z,32.40
2018-05-07T15:29:56.664Z,32.35
2018-05-07T15:32:31.144Z,32.05
2018-05-07T15:35:05.629Z,31.96
2018-05-07T15:37:40.227Z,31.93
2018-05-07T15:40:14.916Z,31.95
2018-05-07T15:42:49.509Z,31.85
2018-05-07T15:45:24.761Z,31.83
2018-05-07T15:47:59.389Z,31.91
2018-05-07T15:50:33.867Z,31.72
2018-05-07T15:53:09.146Z,31.54
2018-05-07T15:55:43.892Z,31.40
2018-05-07T15:58:18.521Z,31.30
2018-05-07T16:00:52.994Z,30.99
2018-05-07T16:03:27.566Z,30.95
2018-05-07T16:06:03.003Z,30.86
2018-05-07T16:08:37.449Z,30.64
2018-05-07T16:11:12.065Z,30.44
2018-05-07T16:13:47.421Z,30.24
2018-05-07T16:16:21.953Z,30.17
2018-05-07T16:18:57.249Z,29.79
2018-05-07T16:21:31.697Z,29.72
2018-05-07T16:24:06.291Z,29.41
2018-05-07T16:26:40.833Z,29.20
2018-05-07T16:29:16.220Z,29.25
2018-05-07T16:31:50.804Z,29.22
2018-05-07T16:34:25.268Z,29.20
2018-05-07T16:36:59.892Z,29.00
2018-05-07T16:39:34.534Z,28.91
2018-05-07T16:42:09.103Z,28.74
2018-05-07T16:44:43.592Z,28.75
2018-05-07T16:47:18.074Z,28.62
2018-05-07T16:49:52.625Z,28.51
2018-05-07T16:52:27.951Z,28.39
2018-05-07T16:55:02.421Z,28.18
2018-05-07T16:57:36.969Z,27.98
2018-05-07T17:00:11.583Z,27.95
2018-05-07T17:02:46.307Z,27.85
2018-05-07T17:05:20.986Z,27.75
2018-05-07T17:07:55.553Z,27.70
2018-05-07T17:10:30.221Z,27.65
2018-05-07T17:13:04.823Z,27.55
2018-05-07T17:15:39.397Z,27.53
2018-05-07T17:18:14.010Z,27.41
2018-05-07T17:20:48.602Z,27.37
2018-05-07T17:23:23.245Z,27.24
2018-05-07T17:25:57.803Z,27.23
2018-05-07T17:28:32.429Z,27.14
2018-05-07T17:31:06.985Z,27.03
2018-05-07T17:33:41.686Z,26.86
2018-05-07T17:36:16.030Z,26.81
2018-05-07T17:38:50.597Z,26.69
2018-05-07T17:41:26.032Z,26.60
2018-05-07T17:44:18.408Z,26.55
2018-05-07T17:47:10.749Z,26.43
2018-05-07T17:49:45.556Z,26.31
2018-05-07T17:52:20.052Z,26.23
2018-05-07T17:54:54.689Z,26.21
2018-05-07T17:57:29.213Z,26.11
2018-05-07T18:00:03.929Z,25.98
2018-05-07T18:02:38.397Z,25.93
2018-05-07T18:05:13.010Z,25.80
2018-05-07T18:07:47.547Z,25.71
2018-05-07T18:10:22.281Z,25.64
2018-05-07T18:12:56.677Z,25.49
2018-05-07T18:15:32.078Z,25.38
2018-05-07T18:18:06.615Z,25.33
2018-05-07T18:20:41.155Z,25.15
2018-05-07T18:23:16.457Z,25.10
2018-05-07T18:25:51.060Z,25.05
2018-05-07T18:28:25.654Z,24.96
2018-05-07T18:31:00.321Z,24.85
2018-05-07T18:33:34.952Z,24.83
2018-05-07T18:36:09.536Z,24.72
2018-05-07T18:38:44.126Z,24.62
2018-05-07T18:41:18.592Z,24.58
2018-05-07T18:43:53.254Z,24.45
2018-05-07T18:46:28.477Z,24.37
2018-05-07T18:49:03.125Z,24.23
2018-05-07T18:51:37.668Z,24.15
2018-05-07T18:54:12.234Z,24.09
2018-05-07T18:56:46.845Z,23.99
2018-05-07T18:59:21.386Z,23.88
2018-05-07T19:01:56.769Z,23.79
2018-05-07T19:04:31.968Z,23.76
2018-05-07T19:07:06.631Z,23.67
2018-05-07T19:09:41.158Z,23.56
2018-05-07T19:12:15.693Z,23.50
2018-05-07T19:14:50.274Z,23.42
2018-05-07T19:17:24.933Z,23.37
2018-05-07T19:20:00.151Z,23.26
2018-05-07T19:22:34.794Z,23.23
2018-05-07T19:25:09.265Z,23.10
2018-05-07T19:27:43.733Z,23.02
2018-05-07T19:30:18.375Z,22.95
2018-05-07T19:32:52.928Z,22.92
2018-05-07T19:35:27.539Z,22.81
2018-05-07T19:38:01.998Z,22.83
2018-05-07T19:40:37.321Z,22.71
2018-05-07T19:43:11.897Z,22.64
2018-05-07T19:45:46.544Z,22.61
2018-05-07T19:48:21.178Z,22.51
2018-05-07T19:50:55.746Z,22.49
2018-05-07T19:53:30.261Z,22.44
2018-05-07T19:56:04.849Z,22.37
2018-05-07T19:58:39.299Z,22.34
2018-05-07T20:01:13.871Z,22.26
2018-05-07T20:03:49.151Z,22.25
2018-05-07T20:06:23.775Z,22.14
2018-05-07T20:08:58.401Z,22.03
2018-05-07T20:11:32.997Z,21.96
2018-05-07T20:14:07.515Z,21.85
2018-05-07T20:16:42.069Z,21.81
2018-05-07T20:19:16.593Z,21.76
2018-05-07T20:21:51.908Z,21.66
2018-05-07T20:24:26.550Z,21.64
2018-05-07T20:27:01.152Z,21.62
2018-05-07T20:29:35.747Z,21.56
2018-05-07T20:32:10.363Z,21.53
2018-05-07T20:34:44.994Z,21.46
2018-05-07T20:37:19.563Z,21.41
2018-05-07T20:39:54.902Z,21.31
2018-05-07T20:42:29.489Z,21.30
2018-05-07T20:45:04.809Z,21.18
2018-05-07T20:47:39.403Z,21.18
2018-05-07T20:50:14.828Z,21.13
2018-05-07T20:52:49.378Z,21.10
2018-05-07T20:55:24.024Z,21.01
2018-05-07T20:57:58.492Z,20.90
2018-05-07T21:00:33.086Z,20.91
2018-05-07T21:03:08.319Z,20.81
2018-05-07T21:05:42.909Z,20.79
2018-05-07T21:08:17.407Z,20.65
2018-05-07T21:10:51.960Z,20.64
2018-05-07T21:13:26.513Z,20.55
2018-05-07T21:16:01.799Z,20.54
2018-05-07T21:18:36.461Z,20.47
2018-05-07T21:21:11.030Z,20.43
2018-05-07T21:23:45.502Z,20.35
2018-05-07T21:26:20.168Z,20.33
2018-05-07T21:28:54.706Z,20.26
2018-05-07T21:31:29.225Z,20.22
2018-05-07T21:34:04.578Z,20.10
2018-05-07T21:36:39.028Z,20.05
2018-05-07T21:39:13.647Z,20.01
2018-05-07T21:41:48.237Z,19.98
2018-05-07T21:44:22.782Z,19.96
2018-05-07T21:46:57.420Z,19.88
2018-05-07T21:49:31.877Z,19.81
2018-05-07T21:52:06.425Z,19.84
2018-05-07T21:54:40.958Z,19.81
2018-05-07T21:57:15.573Z,19.73
2018-05-07T21:59:50.102Z,19.73
2018-05-07T22:02:24.647Z,19.68
2018-05-07T22:04:59.291Z,19.66
2018-05-07T22:07:33.981Z,19.57
2018-05-07T22:10:08.509Z,19.51
2018-05-07T22:12:42.904Z,19.48
2018-05-07T22:15:17.571Z,19.52
2018-05-07T22:17:52.216Z,19.50
2018-05-07T22:20:26.669Z,19.44
2018-05-07T22:23:01.223Z,19.35
2018-05-07T22:25:35.637Z,19.27
2018-05-07T22:28:10.312Z,19.19
2018-05-07T22:30:44.750Z,19.07
2018-05-07T22:33:19.341Z,19.04
2018-05-07T22:35:54.004Z,18.98
2018-05-07T22:38:28.592Z,18.93
2018-05-07T22:41:03.181Z,18.87
2018-05-07T22:43:37.852Z,18.75
2018-05-07T22:46:12.495Z,18.68
2018-05-07T22:48:47.798Z,18.64
2018-05-07T22:51:22.551Z,18.55
2018-05-07T22:53:57.025Z,18.49
2018-05-07T22:56:31.540Z,18.45
2018-05-07T22:59:06.129Z,18.40
2018-05-07T23:01:40.658Z,18.30
2018-05-07T23:04:15.263Z,18.23
2018-05-07T23:06:49.836Z,18.19
2018-05-07T23:09:24.312Z,18.09
2018-05-07T23:11:58.941Z,18.02
2018-05-07T23:14:33.501Z,18.02
2018-05-07T23:17:08.185Z,18.05
2018-05-07T23:19:42.807Z,18.03
2018-05-07T23:22:17.444Z,17.98
2018-05-07T23:24:52.689Z,17.86
2018-05-07T23:27:27.326Z,17.85
2018-05-07T23:30:01.963Z,17.83
2018-05-07T23:32:42.202Z,17.78
2018-05-07T23:35:16.791Z,17.78
2018-05-07T23:37:51.337Z,17.67
2018-05-07T23:40:25.765Z,17.65
2018-05-07T23:43:01.113Z,17.58
2018-05-07T23:45:35.739Z,17.46
2018-05-07T23:48:10.255Z,17.45
2018-05-07T23:50:44.794Z,17.43
2018-05-07T23:53:19.276Z,17.46
2018-05-07T23:55:53.946Z,17.48
2018-05-07T23:58:28.581Z,17.43
